sensor_id;sensor_type;location;lat;lon;timestamp;P1;durP1;ratioP1;P2;durP2;ratioP2
37859;SDS011;23698;52.014;5.190;2023-09-12T05:01:36;58.33;;;34.38;;
37859;SDS011;23698;52.014;5.190;2023-09-12T05:04:23;69.53;;;35.45;;
37859;SDS011;23698;52.014;5.190;2023-09-12T05:07:09;75.63;;;39.10;;
37859;SDS011;23698;52.014;5.190;2023-09-12T05:09:56;84.50;;;43.85;;
37859;SDS011;23698;52.014;5.190;2023-09-12T05:12:43;113.47;;;39.05;;
37859;SDS011;23698;52.014;5.190;2023-09-12T06:14:23;73.72;;;35.63;;
37859;SDS011;23698;52.014;5.190;2023-09-12T06:17:11;64.03;;;33.47;;
37859;SDS011;23698;52.014;5.190;2023-09-12T06:19:57;58.38;;;32.85;;
37859;SDS011;23698;52.014;5.190;2023-09-12T06:22:43;53.40;;;30.65;;
37859;SDS011;23698;52.014;5.190;2023-09-12T06:25:30;52.25;;;30.67;;
37859;SDS011;23698;52.014;5.190;2023-09-12T06:28:24;51.85;;;29.98;;
37859;SDS011;23698;52.014;5.190;2023-09-12T06:31:12;54.78;;;31.08;;
37859;SDS011;23698;52.014;5.190;2023-09-12T06:33:59;47.75;;;30.75;;
37859;SDS011;23698;52.014;5.190;2023-09-12T06:36:45;47.60;;;29.80;;
37859;SDS011;23698;52.014;5.190;2023-09-12T06:39:32;47.00;;;29.63;;
37859;SDS011;23698;52.014;5.190;2023-09-12T06:42:18;49.40;;;29.10;;
37859;SDS011;23698;52.014;5.190;2023-09-12T06:45:05;46.33;;;29.13;;
37859;SDS011;23698;52.014;5.190;2023-09-12T06:47:54;50.10;;;29.05;;
37859;SDS011;23698;52.014;5.190;2023-09-12T06:50:40;47.03;;;28.75;;
37859;SDS011;23698;52.014;5.190;2023-09-12T06:53:31;56.03;;;29.75;;
37859;SDS011;23698;52.014;5.190;2023-09-12T06:56:18;44.80;;;27.65;;
37859;SDS011;23698;52.014;5.190;2023-09-12T06:59:04;53.08;;;29.30;;
37859;SDS011;23698;52.014;5.190;2023-09-12T07:01:51;49.22;;;28.77;;
37859;SDS011;23698;52.014;5.190;2023-09-12T07:04:39;49.85;;;28.13;;
37859;SDS011;23698;52.014;5.190;2023-09-12T07:07:26;44.10;;;27.55;;
37859;SDS011;23698;52.014;5.190;2023-09-12T07:10:12;54.05;;;29.20;;
37859;SDS011;23698;52.014;5.190;2023-09-12T07:13:09;47.58;;;27.98;;
37859;SDS011;23698;52.014;5.190;2023-09-12T07:15:56;49.50;;;27.85;;
37859;SDS011;23698;52.014;5.190;2023-09-12T07:18:43;54.03;;;29.45;;
37859;SDS011;23698;52.014;5.190;2023-09-12T07:21:31;49.92;;;28.95;;
37859;SDS011;23698;52.014;5.190;2023-09-12T07:24:17;50.83;;;29.58;;
37859;SDS011;23698;52.014;5.190;2023-09-12T07:27:04;50.80;;;29.90;;
37859;SDS011;23698;52.014;5.190;2023-09-12T07:29:51;58.92;;;32.55;;
37859;SDS011;23698;52.014;5.190;2023-09-12T07:32:37;60.72;;;32.20;;
37859;SDS011;23698;52.014;5.190;2023-09-12T07:35:24;60.08;;;32.45;;
37859;SDS011;23698;52.014;5.190;2023-09-12T07:38:12;54.03;;;29.63;;
37859;SDS011;23698;52.014;5.190;2023-09-12T07:40:58;54.60;;;31.60;;
37859;SDS011;23698;52.014;5.190;2023-09-12T07:43:45;63.20;;;31.05;;
37859;SDS011;23698;52.014;5.190;2023-09-12T07:46:32;57.88;;;31.08;;
37859;SDS011;23698;52.014;5.190;2023-09-12T07:49:20;60.78;;;33.25;;
37859;SDS011;23698;52.014;5.190;2023-09-12T07:52:06;59.95;;;32.80;;
37859;SDS011;23698;52.014;5.190;2023-09-12T07:54:54;64.28;;;32.80;;
37859;SDS011;23698;52.014;5.190;2023-09-12T07:57:45;56.85;;;32.95;;
37859;SDS011;23698;52.014;5.190;2023-09-12T08:00:31;60.20;;;34.10;;
37859;SDS011;23698;52.014;5.190;2023-09-12T08:03:18;56.42;;;33.40;;
37859;SDS011;23698;52.014;5.190;2023-09-12T08:06:05;61.45;;;35.38;;
37859;SDS011;23698;52.014;5.190;2023-09-12T08:08:52;71.38;;;36.15;;
37859;SDS011;23698;52.014;5.190;2023-09-12T08:11:39;72.80;;;38.15;;
37859;SDS011;23698;52.014;5.190;2023-09-12T08:14:26;77.50;;;38.58;;
37859;SDS011;23698;52.014;5.190;2023-09-12T08:17:13;76.38;;;39.13;;
37859;SDS011;23698;52.014;5.190;2023-09-12T08:20:04;79.50;;;38.17;;
37859;SDS011;23698;52.014;5.190;2023-09-12T08:23:00;73.43;;;38.30;;
37859;SDS011;23698;52.014;5.190;2023-09-12T08:25:47;76.53;;;39.15;;
37859;SDS011;23698;52.014;5.190;2023-09-12T08:28:35;75.45;;;38.45;;
37859;SDS011;23698;52.014;5.190;2023-09-12T08:31:23;74.20;;;40.88;;
37859;SDS011;23698;52.014;5.190;2023-09-12T08:36:58;69.72;;;37.33;;
37859;SDS011;23698;52.014;5.190;2023-09-12T08:39:45;68.85;;;37.75;;
37859;SDS011;23698;52.014;5.190;2023-09-12T08:42:31;66.68;;;37.20;;
37859;SDS011;23698;52.014;5.190;2023-09-12T08:45:19;66.82;;;38.53;;
37859;SDS011;23698;52.014;5.190;2023-09-12T08:48:06;65.93;;;37.15;;
37859;SDS011;23698;52.014;5.190;2023-09-12T08:50:54;64.45;;;37.35;;
37859;SDS011;23698;52.014;5.190;2023-09-12T08:53:41;69.10;;;37.03;;
37859;SDS011;23698;52.014;5.190;2023-09-12T08:56:28;59.78;;;35.75;;
37859;SDS011;23698;52.014;5.190;2023-09-12T08:59:14;59.42;;;35.65;;
37859;SDS011;23698;52.014;5.190;2023-09-12T09:02:03;61.92;;;36.55;;
37859;SDS011;23698;52.014;5.190;2023-09-12T09:04:53;58.40;;;36.10;;
37859;SDS011;23698;52.014;5.190;2023-09-12T09:07:41;56.33;;;35.85;;
37859;SDS011;23698;52.014;5.190;2023-09-12T09:10:29;61.15;;;36.17;;
37859;SDS011;23698;52.014;5.190;2023-09-12T09:13:34;55.85;;;34.60;;
37859;SDS011;23698;52.014;5.190;2023-09-12T09:16:27;54.78;;;35.22;;
37859;SDS011;23698;52.014;5.190;2023-09-12T09:19:24;54.03;;;33.55;;
37859;SDS011;23698;52.014;5.190;2023-09-12T09:22:26;49.67;;;32.50;;
37859;SDS011;23698;52.014;5.190;2023-09-12T09:25:13;56.05;;;33.13;;
37859;SDS011;23698;52.014;5.190;2023-09-12T09:28:02;51.05;;;31.25;;
37859;SDS011;23698;52.014;5.190;2023-09-12T09:30:50;50.05;;;31.75;;
37859;SDS011;23698;52.014;5.190;2023-09-12T09:33:40;48.72;;;31.83;;
37859;SDS011;23698;52.014;5.190;2023-09-12T09:36:32;48.40;;;31.65;;
37859;SDS011;23698;52.014;5.190;2023-09-12T09:39:20;49.30;;;31.35;;
37859;SDS011;23698;52.014;5.190;2023-09-12T09:42:09;51.60;;;32.72;;
37859;SDS011;23698;52.014;5.190;2023-09-12T09:44:57;52.80;;;34.47;;
37859;SDS011;23698;52.014;5.190;2023-09-12T09:47:43;49.85;;;34.20;;
37859;SDS011;23698;52.014;5.190;2023-09-12T09:50:30;53.63;;;34.70;;
37859;SDS011;23698;52.014;5.190;2023-09-12T09:53:22;46.83;;;33.55;;
37859;SDS011;23698;52.014;5.190;2023-09-12T09:56:13;44.50;;;30.10;;
37859;SDS011;23698;52.014;5.190;2023-09-12T09:59:01;44.13;;;29.70;;
37859;SDS011;23698;52.014;5.190;2023-09-12T10:01:48;43.28;;;30.33;;
37859;SDS011;23698;52.014;5.190;2023-09-12T10:04:37;49.53;;;32.67;;
37859;SDS011;23698;52.014;5.190;2023-09-12T10:07:27;44.15;;;31.75;;
37859;SDS011;23698;52.014;5.190;2023-09-12T10:10:19;44.90;;;32.85;;
37859;SDS011;23698;52.014;5.190;2023-09-12T10:13:05;45.80;;;32.95;;
37859;SDS011;23698;52.014;5.190;2023-09-12T11:18:19;39.38;;;28.10;;
37859;SDS011;23698;52.014;5.190;2023-09-12T11:21:05;33.47;;;26.05;;
37859;SDS011;23698;52.014;5.190;2023-09-12T11:23:53;36.55;;;24.83;;
37859;SDS011;23698;52.014;5.190;2023-09-12T11:26:53;33.03;;;25.08;;
37859;SDS011;23698;52.014;5.190;2023-09-12T11:29:44;34.28;;;25.50;;
37859;SDS011;23698;52.014;5.190;2023-09-12T11:32:34;33.22;;;24.80;;
37859;SDS011;23698;52.014;5.190;2023-09-12T11:35:30;35.95;;;24.77;;
37859;SDS011;23698;52.014;5.190;2023-09-12T11:38:26;32.38;;;23.63;;
37859;SDS011;23698;52.014;5.190;2023-09-12T11:41:14;35.45;;;26.63;;
37859;SDS011;23698;52.014;5.190;2023-09-12T11:44:02;40.15;;;26.83;;
37859;SDS011;23698;52.014;5.190;2023-09-12T11:46:50;37.20;;;25.52;;
37859;SDS011;23698;52.014;5.190;2023-09-12T11:49:44;33.15;;;24.88;;
37859;SDS011;23698;52.014;5.190;2023-09-12T11:52:35;35.25;;;26.50;;
37859;SDS011;23698;52.014;5.190;2023-09-12T11:55:24;35.17;;;26.13;;
37859;SDS011;23698;52.014;5.190;2023-09-12T11:58:12;38.92;;;26.48;;
37859;SDS011;23698;52.014;5.190;2023-09-12T12:01:00;31.58;;;25.15;;
37859;SDS011;23698;52.014;5.190;2023-09-12T12:03:46;32.17;;;24.17;;
37859;SDS011;23698;52.014;5.190;2023-09-12T12:06:38;34.63;;;25.40;;
37859;SDS011;23698;52.014;5.190;2023-09-12T12:09:26;36.03;;;25.02;;
37859;SDS011;23698;52.014;5.190;2023-09-12T12:12:13;31.40;;;24.80;;
37859;SDS011;23698;52.014;5.190;2023-09-12T12:15:00;30.73;;;23.75;;
37859;SDS011;23698;52.014;5.190;2023-09-12T12:17:47;30.08;;;23.77;;
37859;SDS011;23698;52.014;5.190;2023-09-12T12:20:34;29.15;;;23.60;;
37859;SDS011;23698;52.014;5.190;2023-09-12T12:23:20;27.85;;;21.05;;
37859;SDS011;23698;52.014;5.190;2023-09-12T12:26:08;30.50;;;21.55;;
37859;SDS011;23698;52.014;5.190;2023-09-12T12:28:55;27.27;;;20.60;;
37859;SDS011;23698;52.014;5.190;2023-09-12T12:31:42;31.00;;;21.95;;
37859;SDS011;23698;52.014;5.190;2023-09-12T12:34:29;29.70;;;21.33;;
37859;SDS011;23698;52.014;5.190;2023-09-12T12:37:35;24.92;;;18.00;;
37859;SDS011;23698;52.014;5.190;2023-09-12T12:40:23;23.42;;;16.55;;
37859;SDS011;23698;52.014;5.190;2023-09-12T12:43:17;22.13;;;15.63;;
37859;SDS011;23698;52.014;5.190;2023-09-12T12:46:09;21.38;;;17.45;;
37859;SDS011;23698;52.014;5.190;2023-09-12T12:48:58;23.13;;;14.63;;
37859;SDS011;23698;52.014;5.190;2023-09-12T12:51:44;18.42;;;12.98;;
37859;SDS011;23698;52.014;5.190;2023-09-12T12:54:32;26.08;;;17.33;;
37859;SDS011;23698;52.014;5.190;2023-09-12T12:57:19;24.48;;;16.15;;
37859;SDS011;23698;52.014;5.190;2023-09-12T13:00:09;20.88;;;14.63;;
37859;SDS011;23698;52.014;5.190;2023-09-12T13:05:42;20.35;;;15.68;;
37859;SDS011;23698;52.014;5.190;2023-09-12T13:08:30;19.30;;;14.55;;
37859;SDS011;23698;52.014;5.190;2023-09-12T13:11:16;19.23;;;14.23;;
37859;SDS011;23698;52.014;5.190;2023-09-12T13:14:03;16.27;;;12.75;;
37859;SDS011;23698;52.014;5.190;2023-09-12T13:16:56;19.35;;;14.43;;
37859;SDS011;23698;52.014;5.190;2023-09-12T13:19:43;10.23;;;8.52;;
37859;SDS011;23698;52.014;5.190;2023-09-12T13:22:31;22.60;;;15.82;;
37859;SDS011;23698;52.014;5.190;2023-09-12T13:25:17;22.67;;;16.02;;
37859;SDS011;23698;52.014;5.190;2023-09-12T13:28:05;24.63;;;18.75;;
37859;SDS011;23698;52.014;5.190;2023-09-12T13:30:52;19.10;;;15.13;;
37859;SDS011;23698;52.014;5.190;2023-09-12T13:33:40;23.75;;;19.08;;
37859;SDS011;23698;52.014;5.190;2023-09-12T13:36:32;26.45;;;19.73;;
37859;SDS011;23698;52.014;5.190;2023-09-12T13:39:21;25.77;;;20.10;;
37859;SDS011;23698;52.014;5.190;2023-09-12T13:42:09;26.13;;;18.15;;
37859;SDS011;23698;52.014;5.190;2023-09-12T13:44:56;21.13;;;16.98;;
37859;SDS011;23698;52.014;5.190;2023-09-12T13:47:42;25.85;;;16.75;;
37859;SDS011;23698;52.014;5.190;2023-09-12T13:50:30;19.83;;;15.05;;
37859;SDS011;23698;52.014;5.190;2023-09-12T13:53:17;22.65;;;16.42;;
37859;SDS011;23698;52.014;5.190;2023-09-12T13:56:03;23.67;;;16.20;;
37859;SDS011;23698;52.014;5.190;2023-09-12T13:59:11;22.88;;;15.52;;
37859;SDS011;23698;52.014;5.190;2023-09-12T14:01:58;23.73;;;16.55;;
37859;SDS011;23698;52.014;5.190;2023-09-12T14:04:44;23.85;;;16.73;;
37859;SDS011;23698;52.014;5.190;2023-09-12T14:07:38;20.45;;;15.95;;
37859;SDS011;23698;52.014;5.190;2023-09-12T14:10:25;22.95;;;16.85;;
37859;SDS011;23698;52.014;5.190;2023-09-12T14:13:21;21.63;;;16.90;;
37859;SDS011;23698;52.014;5.190;2023-09-12T14:16:08;23.42;;;17.40;;
37859;SDS011;23698;52.014;5.190;2023-09-12T14:18:55;23.73;;;16.92;;
37859;SDS011;23698;52.014;5.190;2023-09-12T14:21:46;24.05;;;16.08;;
37859;SDS011;23698;52.014;5.190;2023-09-12T14:24:35;21.15;;;16.30;;
37859;SDS011;23698;52.014;5.190;2023-09-12T14:27:22;20.83;;;16.02;;
37859;SDS011;23698;52.014;5.190;2023-09-12T14:30:12;17.27;;;13.80;;
37859;SDS011;23698;52.014;5.190;2023-09-12T14:33:01;16.75;;;13.00;;
37859;SDS011;23698;52.014;5.190;2023-09-12T14:35:48;20.65;;;13.50;;
37859;SDS011;23698;52.014;5.190;2023-09-12T14:38:34;20.83;;;13.73;;
37859;SDS011;23698;52.014;5.190;2023-09-12T14:41:25;18.13;;;13.93;;
37859;SDS011;23698;52.014;5.190;2023-09-12T14:44:11;17.08;;;12.35;;
37859;SDS011;23698;52.014;5.190;2023-09-12T14:46:58;17.63;;;13.13;;
37859;SDS011;23698;52.014;5.190;2023-09-12T14:49:45;16.35;;;12.68;;
37859;SDS011;23698;52.014;5.190;2023-09-12T14:52:35;19.90;;;14.65;;
37859;SDS011;23698;52.014;5.190;2023-09-12T14:55:23;21.33;;;14.98;;
37859;SDS011;23698;52.014;5.190;2023-09-12T14:58:11;21.45;;;14.68;;
37859;SDS011;23698;52.014;5.190;2023-09-12T15:03:57;23.00;;;17.30;;
37859;SDS011;23698;52.014;5.190;2023-09-12T15:06:44;22.58;;;17.27;;
37859;SDS011;23698;52.014;5.190;2023-09-12T15:09:31;24.77;;;16.00;;
37859;SDS011;23698;52.014;5.190;2023-09-12T15:12:22;22.13;;;16.25;;
37859;SDS011;23698;52.014;5.190;2023-09-12T15:15:10;21.00;;;15.95;;
37859;SDS011;23698;52.014;5.190;2023-09-12T15:17:57;13.63;;;8.77;;
37859;SDS011;23698;52.014;5.190;2023-09-12T15:20:46;12.95;;;8.85;;
37859;SDS011;23698;52.014;5.190;2023-09-12T15:23:32;10.80;;;7.57;;
37859;SDS011;23698;52.014;5.190;2023-09-12T15:26:19;9.82;;;7.75;;
37859;SDS011;23698;52.014;5.190;2023-09-12T15:29:05;10.10;;;7.00;;
37859;SDS011;23698;52.014;5.190;2023-09-12T15:31:54;8.70;;;7.00;;
37859;SDS011;23698;52.014;5.190;2023-09-12T15:34:40;9.35;;;7.13;;
37859;SDS011;23698;52.014;5.190;2023-09-12T15:37:29;10.07;;;6.45;;
37859;SDS011;23698;52.014;5.190;2023-09-12T15:40:16;8.73;;;6.00;;
37859;SDS011;23698;52.014;5.190;2023-09-12T15:43:02;9.82;;;6.20;;
37859;SDS011;23698;52.014;5.190;2023-09-12T15:46:07;7.85;;;5.90;;
37859;SDS011;23698;52.014;5.190;2023-09-12T15:48:55;7.70;;;5.35;;
37859;SDS011;23698;52.014;5.190;2023-09-12T15:51:42;5.82;;;4.97;;
37859;SDS011;23698;52.014;5.190;2023-09-12T15:54:29;6.57;;;5.47;;
37859;SDS011;23698;52.014;5.190;2023-09-12T15:57:16;9.40;;;5.38;;
37859;SDS011;23698;52.014;5.190;2023-09-12T16:00:03;5.90;;;4.85;;
37859;SDS011;23698;52.014;5.190;2023-09-12T16:02:56;7.80;;;5.38;;
37859;SDS011;23698;52.014;5.190;2023-09-12T16:05:44;12.18;;;6.05;;
37859;SDS011;23698;52.014;5.190;2023-09-12T16:08:32;8.98;;;6.35;;
37859;SDS011;23698;52.014;5.190;2023-09-12T16:11:19;8.88;;;6.60;;
37859;SDS011;23698;52.014;5.190;2023-09-12T16:14:05;10.80;;;5.88;;
37859;SDS011;23698;52.014;5.190;2023-09-12T16:36:39;9.15;;;7.10;;
37859;SDS011;23698;52.014;5.190;2023-09-12T16:39:26;11.18;;;6.82;;
37859;SDS011;23698;52.014;5.190;2023-09-12T16:42:13;9.80;;;6.22;;
37859;SDS011;23698;52.014;5.190;2023-09-12T16:45:00;9.38;;;5.13;;
37859;SDS011;23698;52.014;5.190;2023-09-12T16:47:54;6.78;;;4.63;;
37859;SDS011;23698;52.014;5.190;2023-09-12T16:50:41;6.95;;;5.05;;
37859;SDS011;23698;52.014;5.190;2023-09-12T16:53:32;7.10;;;4.17;;
37859;SDS011;23698;52.014;5.190;2023-09-12T16:56:18;8.38;;;3.92;;
37859;SDS011;23698;52.014;5.190;2023-09-12T16:59:05;8.73;;;5.05;;
37859;SDS011;23698;52.014;5.190;2023-09-12T17:01:52;7.07;;;5.03;;
37859;SDS011;23698;52.014;5.190;2023-09-12T17:04:39;7.65;;;4.35;;
37859;SDS011;23698;52.014;5.190;2023-09-12T17:07:28;9.88;;;5.70;;
37859;SDS011;23698;52.014;5.190;2023-09-12T17:10:17;10.45;;;4.90;;
37859;SDS011;23698;52.014;5.190;2023-09-12T17:13:05;7.70;;;5.17;;
37859;SDS011;23698;52.014;5.190;2023-09-12T17:15:54;11.50;;;5.65;;
37859;SDS011;23698;52.014;5.190;2023-09-12T17:18:40;8.95;;;5.47;;
37859;SDS011;23698;52.014;5.190;2023-09-12T17:21:31;10.40;;;5.53;;
37859;SDS011;23698;52.014;5.190;2023-09-12T17:24:18;8.63;;;6.03;;
37859;SDS011;23698;52.014;5.190;2023-09-12T17:27:06;11.88;;;6.15;;
37859;SDS011;23698;52.014;5.190;2023-09-12T17:29:55;10.65;;;6.65;;
37859;SDS011;23698;52.014;5.190;2023-09-12T17:32:42;9.45;;;6.00;;
37859;SDS011;23698;52.014;5.190;2023-09-12T17:35:28;13.82;;;6.15;;
37859;SDS011;23698;52.014;5.190;2023-09-12T17:38:15;11.77;;;7.03;;
37859;SDS011;23698;52.014;5.190;2023-09-12T17:41:01;10.45;;;6.45;;
37859;SDS011;23698;52.014;5.190;2023-09-12T17:43:49;9.38;;;6.15;;
37859;SDS011;23698;52.014;5.190;2023-09-12T17:46:36;9.38;;;6.28;;
37859;SDS011;23698;52.014;5.190;2023-09-12T17:49:24;10.68;;;6.25;;
37859;SDS011;23698;52.014;5.190;2023-09-12T17:52:13;12.85;;;6.72;;
37859;SDS011;23698;52.014;5.190;2023-09-12T17:54:59;10.05;;;6.30;;
37859;SDS011;23698;52.014;5.190;2023-09-12T17:57:46;10.63;;;7.22;;
37859;SDS011;23698;52.014;5.190;2023-09-12T18:00:35;12.13;;;7.78;;
37859;SDS011;23698;52.014;5.190;2023-09-12T18:03:21;15.68;;;8.95;;
37859;SDS011;23698;52.014;5.190;2023-09-12T18:06:12;12.48;;;7.93;;
37859;SDS011;23698;52.014;5.190;2023-09-12T18:08:59;18.38;;;8.10;;
37859;SDS011;23698;52.014;5.190;2023-09-12T18:11:47;13.35;;;8.93;;
37859;SDS011;23698;52.014;5.190;2023-09-12T18:14:38;12.77;;;8.82;;
37859;SDS011;23698;52.014;5.190;2023-09-12T18:17:29;12.98;;;8.45;;
37859;SDS011;23698;52.014;5.190;2023-09-12T18:20:15;14.05;;;8.85;;
37859;SDS011;23698;52.014;5.190;2023-09-12T18:23:02;11.63;;;8.18;;
37859;SDS011;23698;52.014;5.190;2023-09-12T18:25:49;12.25;;;8.63;;
37859;SDS011;23698;52.014;5.190;2023-09-12T18:28:37;11.55;;;9.73;;
37859;SDS011;23698;52.014;5.190;2023-09-12T18:31:25;16.58;;;9.57;;
37859;SDS011;23698;52.014;5.190;2023-09-12T18:34:13;17.48;;;9.63;;
37859;SDS011;23698;52.014;5.190;2023-09-12T18:37:01;14.70;;;9.68;;
37859;SDS011;23698;52.014;5.190;2023-09-12T18:39:49;12.90;;;8.95;;
37859;SDS011;23698;52.014;5.190;2023-09-12T18:42:35;18.48;;;9.48;;
37859;SDS011;23698;52.014;5.190;2023-09-12T18:45:23;14.75;;;9.43;;
37859;SDS011;23698;52.014;5.190;2023-09-12T18:48:10;11.73;;;9.07;;
37859;SDS011;23698;52.014;5.190;2023-09-12T18:50:58;12.75;;;9.15;;
37859;SDS011;23698;52.014;5.190;2023-09-12T18:53:46;19.05;;;10.45;;
37859;SDS011;23698;52.014;5.190;2023-09-12T18:56:33;15.05;;;11.20;;
37859;SDS011;23698;52.014;5.190;2023-09-12T18:59:21;15.27;;;11.48;;
37859;SDS011;23698;52.014;5.190;2023-09-12T19:02:08;16.40;;;10.80;;
37859;SDS011;23698;52.014;5.190;2023-09-12T19:05:02;19.10;;;12.02;;
37859;SDS011;23698;52.014;5.190;2023-09-12T19:07:51;14.88;;;11.40;;
37859;SDS011;23698;52.014;5.190;2023-09-12T19:10:38;18.92;;;12.13;;
37859;SDS011;23698;52.014;5.190;2023-09-12T19:13:28;19.55;;;11.48;;
37859;SDS011;23698;52.014;5.190;2023-09-12T19:16:14;20.08;;;11.63;;
37859;SDS011;23698;52.014;5.190;2023-09-12T19:19:03;17.25;;;11.43;;
37859;SDS011;23698;52.014;5.190;2023-09-12T19:21:52;16.70;;;10.73;;
37859;SDS011;23698;52.014;5.190;2023-09-12T19:24:45;19.88;;;11.65;;
37859;SDS011;23698;52.014;5.190;2023-09-12T19:27:33;18.30;;;11.30;;
37859;SDS011;23698;52.014;5.190;2023-09-12T19:30:19;25.67;;;14.10;;
37859;SDS011;23698;52.014;5.190;2023-09-12T19:33:12;21.90;;;12.80;;
37859;SDS011;23698;52.014;5.190;2023-09-12T19:35:59;18.52;;;13.05;;
37859;SDS011;23698;52.014;5.190;2023-09-12T19:38:48;22.17;;;13.88;;
37859;SDS011;23698;52.014;5.190;2023-09-12T19:41:36;18.08;;;12.40;;
37859;SDS011;23698;52.014;5.190;2023-09-12T19:44:22;21.40;;;14.02;;
37859;SDS011;23698;52.014;5.190;2023-09-12T19:47:12;22.92;;;14.02;;
37859;SDS011;23698;52.014;5.190;2023-09-12T19:49:58;21.58;;;14.45;;
37859;SDS011;23698;52.014;5.190;2023-09-12T19:52:47;21.42;;;14.02;;
37859;SDS011;23698;52.014;5.190;2023-09-12T19:55:34;22.25;;;14.82;;
37859;SDS011;23698;52.014;5.190;2023-09-12T19:58:22;18.40;;;14.70;;
37859;SDS011;23698;52.014;5.190;2023-09-12T20:37:17;16.58;;;12.00;;
37859;SDS011;23698;52.014;5.190;2023-09-12T20:40:03;19.90;;;12.85;;
37859;SDS011;23698;52.014;5.190;2023-09-12T20:42:50;20.08;;;13.10;;
37859;SDS011;23698;52.014;5.190;2023-09-12T20:45:38;19.20;;;13.70;;
37859;SDS011;23698;52.014;5.190;2023-09-12T20:48:25;18.35;;;13.45;;
37859;SDS011;23698;52.014;5.190;2023-09-12T20:51:12;20.90;;;14.75;;
37859;SDS011;23698;52.014;5.190;2023-09-12T20:54:02;20.85;;;14.07;;
37859;SDS011;23698;52.014;5.190;2023-09-12T20:56:53;22.27;;;15.32;;
37859;SDS011;23698;52.014;5.190;2023-09-12T20:59:39;19.10;;;15.50;;
37859;SDS011;23698;52.014;5.190;2023-09-12T21:02:26;20.55;;;15.30;;
37859;SDS011;23698;52.014;5.190;2023-09-12T21:05:13;18.85;;;14.52;;
37859;SDS011;23698;52.014;5.190;2023-09-12T21:08:00;20.88;;;14.27;;
37859;SDS011;23698;52.014;5.190;2023-09-12T21:10:48;17.85;;;12.85;;
37859;SDS011;23698;52.014;5.190;2023-09-12T21:13:34;20.90;;;14.10;;
37859;SDS011;23698;52.014;5.190;2023-09-12T21:16:21;16.00;;;13.23;;
37859;SDS011;23698;52.014;5.190;2023-09-12T21:19:08;17.27;;;12.50;;
37859;SDS011;23698;52.014;5.190;2023-09-12T21:21:54;18.13;;;12.90;;
37859;SDS011;23698;52.014;5.190;2023-09-12T21:24:42;17.17;;;12.50;;
37859;SDS011;23698;52.014;5.190;2023-09-12T21:27:31;18.95;;;12.52;;
37859;SDS011;23698;52.014;5.190;2023-09-12T21:30:18;16.20;;;12.00;;
37859;SDS011;23698;52.014;5.190;2023-09-12T21:33:04;14.50;;;12.07;;
37859;SDS011;23698;52.014;5.190;2023-09-12T21:35:51;20.17;;;12.60;;
37859;SDS011;23698;52.014;5.190;2023-09-12T21:38:38;19.85;;;12.93;;
37859;SDS011;23698;52.014;5.190;2023-09-12T21:41:25;20.00;;;12.20;;
37859;SDS011;23698;52.014;5.190;2023-09-12T21:44:13;20.75;;;13.43;;
37859;SDS011;23698;52.014;5.190;2023-09-12T21:47:00;15.00;;;12.38;;
37859;SDS011;23698;52.014;5.190;2023-09-12T21:49:46;15.55;;;12.30;;
37859;SDS011;23698;52.014;5.190;2023-09-12T21:52:33;18.75;;;12.30;;
37859;SDS011;23698;52.014;5.190;2023-09-12T21:55:20;17.63;;;11.98;;
37859;SDS011;23698;52.014;5.190;2023-09-12T21:58:07;18.60;;;11.82;;
37859;SDS011;23698;52.014;5.190;2023-09-12T22:00:55;16.35;;;12.25;;
37859;SDS011;23698;52.014;5.190;2023-09-12T22:03:41;16.77;;;11.70;;
37859;SDS011;23698;52.014;5.190;2023-09-12T22:06:28;13.57;;;10.20;;
37859;SDS011;23698;52.014;5.190;2023-09-12T22:09:15;14.65;;;10.50;;
37859;SDS011;23698;52.014;5.190;2023-09-12T22:12:01;19.67;;;11.63;;
37859;SDS011;23698;52.014;5.190;2023-09-12T22:14:48;20.33;;;12.15;;
